首页
METAR-TAF:

METAR-TAF

机场 :

Joplin Regional Airport

Joplin, 密蘇里州, 美国

纬度: 37-09-22N, 经度: 094-30-02W, 海拔: 299米

当前天气观测

该预报发布于24分钟前的06:53 UTC
风速6节,风向
温度 15°C
湿度 63%
气压 1020 hPa
能見度: 16.1公里
少量云层高于8000英尺
阴天层高于10000英尺

METAR: KJLN 250653Z AUTO 10006KT 10SM FEW080 OVC100 15/08 A3011 RMK AO2 RAB0556E08 SLP189 P0000 T01500078

时间: 02:17 (07:17 UTC)

预报

该预报发布于1小时和45分钟前的05:32 UTC
预报有效从25日的 06点(UTC)到 26日的 06点(UTC)
风速7节,风向东转东南
能見度: 10公里
少量云层高于7000英尺
多云层高于10000英尺
附近有阵雨
从 25日的 0900点(UTC)
风速10节,风向东南
能見度: 6.4公里
阴天层高于8000英尺
短暂存在
从 25日的 14点(UTC)到 25日的 16点(UTC)
能見度: 3.2公里
阴天层高于2500英尺, 积雨云.
雷暴, 雨, 轻雾
从 25日的 1600点(UTC)
风速18节,风向东南,有时为25节阵风
能見度: 6.4公里
阴天层高于1500英尺
雨, 轻雾
短暂存在
从 25日的 16点(UTC)到 25日的 20点(UTC)
能見度: 3.2公里
阴天层高于1000英尺, 积雨云.
雷暴, 雨, 轻雾
从 26日的 0000点(UTC)
风速18节,风向东南,有时为25节阵风
能見度: 8.0公里
阴天层高于1300英尺, 积雨云.
小阵雨, 轻雾, 附近有雷暴
几率 30%
从 26日的 00点(UTC)到 26日的 06点(UTC)
能見度: 3.2公里
阴天层高于900英尺, 积雨云.
雷暴, 雨, 轻雾,

TAF: KJLN 250532Z 2506/2606 12007KT P6SM VCSH FEW070 BKN100 FM250900 13010KT 4SM RA OVC080 TEMPO 2514/2516 2SM TSRA BR OVC025CB FM251600 14018G25KT 4SM RA BR OVC015 TEMPO 2516/2520 2SM TSRA BR OVC010CB FM260000 14018G25KT 5SM -SHRA BR VCTS OVC013CB PROB30 2600/2606 2SM TSRA BR OVC009CB

超过4000个机场的气象观测和天气预报(METAR&TAF报告)。

可查询的气象台以黄色和红色小点在地图上表示。

将鼠标移到小点上方,可查看气象台名称。

然后点击查看天气观测和预报。

如需切换地图:点击带黑十字的绿色按钮放大地图;点击带横线的绿色按钮缩小地图;或者点击绿色箭头查看邻近地区的地图。


METAR-TAF: